Terminal Aerodrome Forecast
Issued by NWS

Home | Current Version | Previous Version | Text Only | Print | Product List | Glossary On
Versions: 1 2 3 4 5 6 7 8 9 10 11 12 13 14
000
FTUS45 KRIW 262113 AAA
TAFRKS
TAF AMD
KRKS 262113Z 2621/2718 24014G24KT P6SM VCTS SCT100CB BKN150
      TEMPO 2621/2622 VRB25G40KT -TSRA BKN100CB
     FM270200 22007KT P6SM FEW120=

USA.gov is the U.S. government's official web portal to all federal, state and local government web resources and services.